Time;durP1;ratioP1;P1;durP2;ratioP2;P2;SDS_P1;SDS_P2;PMS_P1;PMS_P2;Temp;Humidity;BMP_temperature;BMP_pressure;BME280_temperature;BME280_humidity;BME280_pressure;Samples;Min_cycle;Max_cycle;Signal;HPM_P1;HPM_P2
2021/04/03 00:00:57;;;;;;;10.35;6.03;;;;;;;4.38;66.26;99132.34;1833517;76;21570;-48
2021/04/03 00:03:27;;;;;;;13.72;6.25;;;;;;;4.37;66.40;99138.62;1837789;77;21123;-48
2021/04/03 00:09:04;;;;;;;9.68;6.40;;;;;;;4.38;66.81;99129.67;1788277;77;22094;-50
2021/04/03 00:11:32;;;;;;;10.88;6.40;;;;;;;4.29;66.69;99127.32;1782690;78;21029;-48
2021/04/03 00:13:59;;;;;;;11.15;6.83;;;;;;;4.29;66.57;99128.66;1766655;80;21391;-48
2021/04/03 00:16:28;;;;;;;10.78;6.10;;;;;;;4.27;66.59;99129.19;1762793;78;20957;-49
2021/04/03 00:18:56;;;;;;;10.38;6.05;;;;;;;4.25;66.49;99133.68;1733662;80;20977;-49
2021/04/03 00:21:24;;;;;;;12.28;5.65;;;;;;;4.26;66.46;99130.08;1764067;80;20953;-48
2021/04/03 00:23:52;;;;;;;10.05;6.10;;;;;;;4.26;66.42;99124.74;1760734;80;21005;-52
2021/04/03 00:26:20;;;;;;;12.33;6.58;;;;;;;4.26;66.37;99130.08;1762599;79;21556;-48
2021/04/03 00:28:48;;;;;;;13.70;6.83;;;;;;;4.26;66.33;99122.08;1767090;80;20977;-48
2021/04/03 00:31:18;;;;;;;12.03;7.35;;;;;;;4.26;66.45;99130.08;1764024;79;20958;-48
2021/04/03 00:33:46;;;;;;;14.80;7.62;;;;;;;4.28;66.58;99125.58;1767065;79;21155;-49
2021/04/03 00:36:14;;;;;;;11.85;7.20;;;;;;;4.27;66.69;99127.84;1761778;80;21105;-49
2021/04/03 00:38:42;;;;;;;16.10;7.95;;;;;;;4.25;66.71;99131.02;1760957;80;22067;-48
2021/04/03 00:41:10;;;;;;;11.90;7.60;;;;;;;4.27;66.81;99131.85;1762333;79;21622;-48
2021/04/03 00:43:38;;;;;;;16.48;9.38;;;;;;;4.26;66.83;99125.64;1762086;78;20993;-54
2021/04/03 00:46:06;;;;;;;17.75;9.45;;;;;;;4.24;66.97;99121.27;1773559;79;21638;-48
2021/04/03 00:48:36;;;;;;;15.13;9.60;;;;;;;4.23;67.16;99127.53;1763220;80;21174;-52
2021/04/03 00:51:04;;;;;;;17.07;9.75;;;;;;;4.22;67.28;99128.47;1741540;80;21498;-53
2021/04/03 00:53:33;;;;;;;15.08;8.80;;;;;;;4.18;67.37;99128.56;1763725;80;21614;-53
2021/04/03 00:56:07;;;;;;;14.80;8.73;;;;;;;4.17;67.51;99132.63;1762571;80;21171;-45
2021/04/03 00:58:35;;;;;;;17.35;9.33;;;;;;;4.17;67.54;99129.49;1766010;78;21116;-45
2021/04/03 01:01:04;;;;;;;18.32;10.10;;;;;;;4.16;67.67;99129.09;1764168;80;20989;-46
2021/04/03 01:03:34;;;;;;;14.45;9.08;;;;;;;4.14;67.55;99126.91;1761588;79;21302;-45
2021/04/03 01:06:05;;;;;;;16.35;9.33;;;;;;;4.10;67.70;99128.40;1763755;80;21019;-44
2021/04/03 01:08:34;;;;;;;21.37;10.88;;;;;;;4.07;67.84;99130.72;1762573;80;21520;-45
2021/04/03 01:11:03;;;;;;;20.05;10.88;;;;;;;4.05;67.93;99139.25;1763187;80;21896;-46
2021/04/03 01:14:08;;;;;;;20.17;11.50;;;;;;;4.05;67.96;99133.92;1764341;78;20985;-45
2021/04/03 01:16:58;;;;;;;20.82;10.28;;;;;;;4.05;67.97;99139.25;1763261;80;21197;-45
2021/04/03 01:20:03;;;;;;;20.90;10.07;;;;;;;4.04;67.86;99130.81;1763501;80;20989;-45
2021/04/03 01:23:12;;;;;;;20.92;10.72;;;;;;;4.08;67.78;99136.47;1793128;76;22722;-45
2021/04/03 01:25:48;;;;;;;19.30;10.08;;;;;;;4.01;67.76;99135.41;1759668;79;20973;-45
2021/04/03 01:28:53;;;;;;;17.77;10.40;;;;;;;3.98;67.65;99140.36;1760492;79;21324;-45
2021/04/03 01:31:30;;;;;;;17.17;10.53;;;;;;;4.00;67.64;99134.53;1846011;76;22763;-45
2021/04/03 01:34:00;;;;;;;19.32;10.88;;;;;;;3.93;67.63;99136.51;1757955;77;21048;-45
2021/04/03 01:36:30;;;;;;;18.32;10.20;;;;;;;3.94;67.63;99130.71;1751596;80;21163;-45
2021/04/03 01:39:07;;;;;;;22.52;11.22;;;;;;;3.93;67.70;99130.31;1745913;81;21025;-44
2021/04/03 01:41:36;;;;;;;19.55;10.58;;;;;;;3.92;67.80;99135.23;1743182;79;21583;-47
2021/04/03 01:44:04;;;;;;;21.57;10.50;;;;;;;3.90;67.88;99131.30;1742080;81;20989;-47
2021/04/03 01:46:36;;;;;;;18.70;11.63;;;;;;;3.90;67.94;99135.30;1713615;81;21041;-46
2021/04/03 01:49:09;;;;;;;19.32;10.50;;;;;;;3.88;68.06;99137.59;1742093;81;21424;-45
2021/04/03 01:51:41;;;;;;;21.40;11.95;;;;;;;3.87;68.02;99130.52;1742266;79;20977;-45
2021/04/03 01:54:10;;;;;;;;;;;;;;;3.86;68.04;99134.98;1722686;81;21710;-46
2021/04/03 01:56:38;;;;;;;20.17;10.50;;;;;;;3.87;68.08;99134.52;1733955;81;20279;-46
2021/04/03 01:59:08;;;;;;;20.68;12.53;;;;;;;3.85;68.08;99132.37;1748278;79;21233;-46
2021/04/03 02:01:41;;;;;;;16.52;10.08;;;;;;;3.86;67.99;99128.78;1715602;81;21428;-46
2021/04/03 02:04:12;;;;;;;18.87;12.00;;;;;;;3.86;68.02;99127.44;1715356;79;21144;-46
2021/04/03 02:06:44;;;;;;;20.45;11.70;;;;;;;3.86;68.12;99128.78;1747051;79;21368;-45
2021/04/03 02:09:17;;;;;;;21.33;11.75;;;;;;;3.85;68.17;99119.03;1742369;79;21135;-46
2021/04/03 02:11:49;;;;;;;18.98;10.80;;;;;;;3.84;68.31;99121.30;1742824;79;20989;-46
2021/04/03 02:14:42;;;;;;;21.65;10.70;;;;;;;3.91;68.54;99118.83;1859189;74;22543;-48
2021/04/03 02:17:13;;;;;;;16.23;10.13;;;;;;;3.89;68.33;99120.69;1823544;77;20950;-48
2021/04/03 02:19:41;;;;;;;18.85;11.18;;;;;;;3.93;68.14;99120.97;1752855;80;22111;-45
2021/04/03 02:22:12;;;;;;;19.50;11.12;;;;;;;3.92;68.04;99123.23;1755094;80;21175;-52
2021/04/03 02:24:44;;;;;;;18.20;10.63;;;;;;;3.91;68.17;99116.16;1785995;79;20999;-53
2021/04/03 02:27:12;;;;;;;18.07;10.18;;;;;;;3.90;67.97;99115.30;1754248;78;21136;-53
2021/04/03 02:29:41;;;;;;;16.45;9.45;;;;;;;3.92;67.87;99107.23;1766000;79;21593;-52
2021/04/03 02:32:10;;;;;;;16.07;9.88;;;;;;;3.91;67.37;99112.16;1764762;79;21352;-52
2021/04/03 02:34:38;;;;;;;17.70;9.78;;;;;;;3.90;67.37;99109.09;1754509;80;21056;-53
2021/04/03 02:37:08;;;;;;;15.30;9.43;;;;;;;3.90;67.63;99111.76;1751536;80;21539;-53
2021/04/03 02:39:38;;;;;;;17.25;8.55;;;;;;;3.89;67.47;99115.35;1784476;79;20990;-52
2021/04/03 02:42:18;;;;;;;20.55;10.70;;;;;;;3.89;67.39;99115.35;1773763;80;21006;-53
2021/04/03 02:44:50;;;;;;;18.52;11.18;;;;;;;3.87;67.57;99114.52;1763948;79;22173;-49
2021/04/03 02:47:35;;;;;;;14.85;9.35;;;;;;;3.86;67.84;99111.44;1748827;79;21668;-48
2021/04/03 02:50:07;;;;;;;15.83;8.58;;;;;;;3.89;67.86;99107.35;1764479;79;21124;-48
2021/04/03 02:52:51;;;;;;;15.28;8.88;;;;;;;3.97;67.67;99110.61;1830990;76;22755;-48
2021/04/03 02:55:27;;;;;;;17.65;9.20;;;;;;;3.95;67.53;99109.81;1799693;77;21498;-49
2021/04/03 02:57:58;;;;;;;16.57;9.98;;;;;;;3.97;67.45;99107.95;1800665;77;21126;-50
2021/04/03 03:00:26;;;;;;;17.02;9.05;;;;;;;4.01;67.33;99117.59;1798971;77;21008;-49
2021/04/03 03:02:55;;;;;;;22.10;9.73;;;;;;;4.04;67.22;99117.48;1795883;77;21086;-49
2021/04/03 03:05:24;;;;;;;20.85;10.25;;;;;;;4.05;67.13;99111.24;1795728;77;20969;-49
2021/04/03 03:07:54;;;;;;;18.07;9.85;;;;;;;4.04;67.07;99110.80;1801137;77;21147;-48
2021/04/03 03:10:22;;;;;;;18.73;9.35;;;;;;;4.04;67.30;99115.27;1794208;77;21426;-50
2021/04/03 03:12:53;;;;;;;16.82;10.25;;;;;;;4.05;67.27;99119.25;1798157;77;21044;-54
2021/04/03 03:15:21;;;;;;;20.35;10.43;;;;;;;4.06;67.25;99115.65;1800264;77;20999;-51
2021/04/03 03:17:51;;;;;;;20.00;10.68;;;;;;;4.05;67.21;99116.58;1797081;77;21544;-48
2021/04/03 03:20:21;;;;;;;15.55;8.95;;;;;;;3.99;67.42;99119.42;1796531;77;21007;-49
2021/04/03 03:22:50;;;;;;;15.00;8.93;;;;;;;3.96;67.32;99116.87;1769251;77;21563;-48
2021/04/03 03:25:18;;;;;;;19.77;9.38;;;;;;;3.93;67.18;99116.97;1799034;77;21187;-49
2021/04/03 03:27:47;;;;;;;15.78;9.60;;;;;;;3.91;67.31;99118.83;1797513;77;21162;-50
2021/04/03 03:30:19;;;;;;;16.93;9.15;;;;;;;3.90;67.32;99119.76;1802388;77;21119;-48
2021/04/03 03:32:47;;;;;;;18.12;10.38;;;;;;;3.89;67.24;99110.02;1798949;77;20949;-49
2021/04/03 03:35:16;;;;;;;19.70;11.78;;;;;;;3.89;67.00;99115.35;1798281;77;21371;-48
2021/04/03 03:37:46;;;;;;;22.27;12.37;;;;;;;3.83;67.22;99107.53;1765843;77;21627;-49
2021/04/03 03:40:15;;;;;;;17.82;12.07;;;;;;;3.81;67.24;99102.72;1793748;77;21163;-48
2021/04/03 03:42:44;;;;;;;20.00;11.25;;;;;;;3.81;66.99;99104.05;1797609;77;21139;-46
2021/04/03 03:45:15;;;;;;;15.93;11.10;;;;;;;3.81;66.94;99101.39;1766664;77;21520;-46
2021/04/03 03:47:44;;;;;;;22.22;11.03;;;;;;;3.81;67.00;99106.72;1801133;77;21475;-47
2021/04/03 03:50:13;;;;;;;22.05;10.15;;;;;;;3.79;66.62;99108.58;1763136;79;21029;-46
2021/04/03 03:52:42;;;;;;;16.15;9.05;;;;;;;3.76;66.61;99102.00;1725747;81;21144;-45
2021/04/03 03:55:12;;;;;;;17.48;10.03;;;;;;;3.73;66.75;99108.75;1705854;81;21165;-46
2021/04/03 03:57:40;;;;;;;16.85;10.28;;;;;;;3.68;66.86;99109.80;1732669;81;21582;-47
2021/04/03 04:00:09;;;;;;;18.65;11.18;;;;;;;3.66;66.86;99102.76;1732356;80;21589;-48
2021/04/03 04:02:43;;;;;;;17.00;10.48;;;;;;;3.64;66.95;99108.15;1762565;79;21168;-46
2021/04/03 04:05:13;;;;;;;16.37;10.03;;;;;;;3.63;67.08;99121.08;1769545;79;21006;-46
2021/04/03 04:07:43;;;;;;;14.60;9.28;;;;;;;3.61;67.12;99114.91;1760778;79;21520;-45
2021/04/03 04:10:13;;;;;;;14.28;8.10;;;;;;;3.59;67.08;99119.42;1769438;79;21058;-46
2021/04/03 04:12:43;;;;;;;14.35;8.40;;;;;;;3.56;66.73;99120.84;1731818;80;22018;-49
2021/04/03 04:15:13;;;;;;;13.80;8.60;;;;;;;3.55;66.79;99127.09;1740561;80;21179;-48
2021/04/03 04:17:41;;;;;;;19.15;8.43;;;;;;;3.56;66.73;99128.84;1715381;80;21025;-49
2021/04/03 04:20:11;;;;;;;20.85;9.38;;;;;;;3.60;66.84;99125.16;1747774;80;21197;-49
2021/04/03 04:22:40;;;;;;;15.30;9.08;;;;;;;3.61;66.86;99124.23;1741640;80;21127;-49
2021/04/03 04:25:09;;;;;;;15.23;9.25;;;;;;;3.62;66.94;99134.00;1747488;80;21557;-49
2021/04/03 04:27:37;;;;;;;18.42;10.03;;;;;;;3.62;67.02;99121.10;1745564;80;21150;-49
2021/04/03 04:30:10;;;;;;;16.23;9.43;;;;;;;3.62;67.14;99128.67;1745205;80;21553;-49
2021/04/03 04:32:40;;;;;;;19.40;11.33;;;;;;;3.62;67.51;99131.33;1743185;80;21631;-49
2021/04/03 04:35:10;;;;;;;16.17;10.13;;;;;;;3.62;67.65;99135.77;1741550;80;21558;-49
2021/04/03 04:37:39;;;;;;;18.95;9.40;;;;;;;3.62;67.45;99139.33;1759130;79;21349;-51
2021/04/03 04:40:09;;;;;;;14.18;8.95;;;;;;;3.65;67.40;99139.68;1762424;79;21060;-49
2021/04/03 04:42:42;;;;;;;11.63;8.05;;;;;;;3.67;67.08;99138.73;1761558;79;21021;-49
2021/04/03 04:45:12;;;;;;;14.47;9.58;;;;;;;3.68;67.22;99136.47;1735941;80;21124;-49
2021/04/03 04:47:40;;;;;;;18.80;9.33;;;;;;;3.71;67.45;99137.27;1739668;79;21951;-50
2021/04/03 04:50:10;;;;;;;15.93;9.45;;;;;;;3.75;67.56;99136.26;1735127;80;21446;-51
2021/04/03 04:52:39;;;;;;;16.77;10.82;;;;;;;3.79;67.32;99137.91;1761790;79;21147;-49
2021/04/03 04:55:09;;;;;;;22.02;11.43;;;;;;;3.77;67.38;99137.07;1734220;80;21142;-49
2021/04/03 04:57:37;;;;;;;21.17;11.90;;;;;;;3.77;67.41;99131.73;1761346;79;21220;-49
2021/04/03 05:00:09;;;;;;;18.55;10.18;;;;;;;3.74;67.67;99137.19;1761251;79;21675;-51
2021/04/03 05:02:46;;;;;;;17.75;10.68;;;;;;;3.75;67.89;99133.59;1792090;76;22804;-49
2021/04/03 05:05:15;;;;;;;24.32;13.65;;;;;;;3.65;68.10;99139.22;1756932;79;21041;-49
2021/04/03 05:07:43;;;;;;;19.30;12.33;;;;;;;3.64;68.29;99142.81;1758168;77;22259;-50
2021/04/03 05:10:12;;;;;;;20.25;11.57;;;;;;;3.62;68.40;99144.66;1755790;79;21032;-50
2021/04/03 05:12:41;;;;;;;20.00;11.08;;;;;;;3.62;68.62;99147.33;1757741;79;21017;-48
2021/04/03 05:15:09;;;;;;;18.12;11.18;;;;;;;3.62;68.82;99147.77;1755980;79;21049;-48
2021/04/03 05:17:37;;;;;;;19.65;11.53;;;;;;;3.62;69.04;99155.33;1758197;79;20957;-47
2021/04/03 05:20:06;;;;;;;19.15;10.65;;;;;;;3.57;69.20;99143.94;1755522;79;21372;-45
2021/04/03 05:22:34;;;;;;;20.17;11.22;;;;;;;3.53;69.23;99144.08;1756783;79;21155;-45
2021/04/03 05:25:03;;;;;;;22.48;12.82;;;;;;;3.52;69.80;99145.88;1756177;79;21641;-47
2021/04/03 05:27:31;;;;;;;20.88;12.45;;;;;;;3.52;70.33;99143.21;1756219;79;21009;-46
2021/04/03 05:29:58;;;;;;;26.90;15.63;;;;;;;3.53;71.00;99139.62;1762138;79;21538;-45
2021/04/03 05:32:27;;;;;;;22.67;13.80;;;;;;;3.54;71.30;99141.82;1763906;78;21432;-46
2021/04/03 05:34:55;;;;;;;20.27;12.78;;;;;;;3.55;71.46;99145.76;1763512;79;21688;-45
2021/04/03 05:37:23;;;;;;;21.70;11.78;;;;;;;3.57;71.49;99143.94;1758671;79;21923;-49
2021/04/03 05:39:51;;;;;;;21.20;12.40;;;;;;;3.59;71.35;99147.41;1758358;79;21345;-46
2021/04/03 05:42:20;;;;;;;19.92;11.12;;;;;;;3.60;71.21;99148.28;1760459;80;21546;-46
2021/04/03 05:44:48;;;;;;;14.60;9.33;;;;;;;3.63;71.00;99148.20;1757985;78;21461;-47
2021/04/03 05:47:16;;;;;;;15.43;9.65;;;;;;;3.64;70.53;99137.48;1759087;78;21155;-48
2021/04/03 05:49:45;;;;;;;15.68;10.60;;;;;;;3.64;70.42;99142.81;1757848;79;21505;-47
2021/04/03 05:52:13;;;;;;;18.27;10.93;;;;;;;3.66;70.54;99143.62;1757935;79;21183;-48
2021/04/03 05:54:43;;;;;;;19.60;10.03;;;;;;;3.72;70.60;99152.34;1758557;80;21143;-48
2021/04/03 05:57:11;;;;;;;15.53;9.30;;;;;;;3.77;70.42;99161.07;1758772;78;21368;-47
2021/04/03 05:59:41;;;;;;;17.37;9.03;;;;;;;3.80;70.19;99159.19;1762210;79;21648;-46
2021/04/03 06:02:09;;;;;;;16.70;8.83;;;;;;;3.87;69.94;99161.19;1746675;80;21529;-46
2021/04/03 06:04:37;;;;;;;15.28;8.98;;;;;;;3.93;69.81;99162.31;1757290;78;21741;-46
2021/04/03 06:07:05;;;;;;;16.00;8.53;;;;;;;3.97;69.46;99166.64;1729497;80;21103;-45
2021/04/03 06:09:33;;;;;;;16.35;9.23;;;;;;;4.01;69.24;99166.95;1762554;78;22221;-47
2021/04/03 06:12:01;;;;;;;14.23;7.80;;;;;;;4.05;69.38;99172.61;1730505;79;21159;-46
2021/04/03 06:14:32;;;;;;;13.53;6.92;;;;;;;4.12;68.99;99175.47;1757446;79;21146;-47
2021/04/03 06:17:01;;;;;;;11.65;7.47;;;;;;;4.13;68.43;99181.21;1747434;79;21103;-46
2021/04/03 06:19:29;;;;;;;11.48;7.10;;;;;;;4.15;68.01;99182.02;1761516;78;20958;-47
2021/04/03 06:22:01;;;;;;;13.03;6.72;;;;;;;4.17;67.32;99178.86;1754558;80;21397;-46
2021/04/03 06:24:32;;;;;;;12.23;7.50;;;;;;;4.18;67.59;99181.94;1758102;79;21148;-47
2021/04/03 06:27:08;;;;;;;14.28;7.40;;;;;;;4.16;67.63;99183.79;1757209;79;21178;-48
2021/04/03 06:29:47;;;;;;;11.60;6.53;;;;;;;4.19;67.80;99180.13;1761500;78;21136;-46
2021/04/03 06:32:35;;;;;;;12.65;7.03;;;;;;;4.23;67.93;99183.58;1762264;78;21577;-45
2021/04/03 06:35:03;;;;;;;12.37;7.10;;;;;;;4.22;67.82;99180.05;1761282;79;21466;-46
2021/04/03 06:37:34;;;;;;;11.80;7.17;;;;;;;4.26;67.97;99180.78;1761905;78;21223;-47
2021/04/03 06:40:09;;;;;;;9.17;6.50;;;;;;;4.31;67.88;99184.17;1759567;79;21163;-46
2021/04/03 06:42:47;;;;;;;12.70;8.05;;;;;;;4.36;67.76;99189.77;1762251;78;21120;-46
2021/04/03 06:45:34;;;;;;;17.60;7.15;;;;;;;4.44;67.68;99189.52;1758922;79;21051;-46
2021/04/03 06:48:09;;;;;;;11.18;6.90;;;;;;;4.49;67.25;99196.91;1758287;78;22104;-47
2021/04/03 06:51:05;;;;;;;16.37;7.75;;;;;;;4.57;67.33;99202.84;1843535;75;22817;-45
2021/04/03 06:53:34;;;;;;;12.93;7.15;;;;;;;4.60;67.40;99202.75;1813995;77;20977;-45
2021/04/03 06:56:04;;;;;;;8.90;6.30;;;;;;;4.68;67.13;99207.80;1804323;77;21193;-48
2021/04/03 06:58:32;;;;;;;12.18;7.33;;;;;;;4.73;66.58;99203.18;1772332;77;21149;-48
2021/04/03 07:01:00;;;;;;;13.22;7.67;;;;;;;4.78;66.70;99205.22;1813201;77;21216;-44
2021/04/03 07:03:28;;;;;;;12.95;7.50;;;;;;;4.85;66.72;99207.23;1809380;77;21001;-46
2021/04/03 07:05:57;;;;;;;13.83;7.62;;;;;;;4.95;66.75;99211.30;1818989;77;20989;-46
2021/04/03 07:08:26;;;;;;;12.18;7.42;;;;;;;5.02;66.25;99212.84;1812957;77;21387;-47
2021/04/03 07:10:54;;;;;;;14.03;7.30;;;;;;;5.10;65.97;99207.20;1820788;77;21037;-45
2021/04/03 07:13:23;;;;;;;12.95;6.78;;;;;;;5.19;66.01;99227.78;1815931;77;21087;-45
2021/04/03 07:15:52;;;;;;;13.83;8.35;;;;;;;5.28;65.79;99224.37;1807665;77;21761;-47
2021/04/03 07:18:21;;;;;;;18.37;10.85;;;;;;;5.35;65.68;99224.55;1821839;77;21151;-48
2021/04/03 07:20:50;;;;;;;18.17;9.50;;;;;;;5.43;65.81;99231.80;1803284;77;21198;-46
2021/04/03 07:23:18;;;;;;;15.58;7.45;;;;;;;5.52;65.63;99231.45;1812836;77;20992;-45
2021/04/03 07:25:46;;;;;;;11.65;6.10;;;;;;;5.62;65.17;99235.53;1820951;77;21104;-46
2021/04/03 07:28:15;;;;;;;11.80;6.28;;;;;;;5.74;63.97;99233.70;1815150;77;20962;-46
2021/04/03 07:30:46;;;;;;;10.88;6.62;;;;;;;5.82;63.77;99233.89;1822130;77;21576;-49
2021/04/03 07:33:23;;;;;;;11.50;8.35;;;;;;;5.96;63.13;99232.42;1810409;77;22350;-50
2021/04/03 07:35:59;;;;;;;12.82;8.18;;;;;;;5.95;63.35;99243.20;1809476;78;21356;-52
2021/04/03 07:38:36;;;;;;;15.50;8.68;;;;;;;6.03;63.54;99239.30;1812828;77;22717;-45
2021/04/03 07:41:14;;;;;;;11.03;7.30;;;;;;;6.04;63.03;99249.53;1805810;79;20927;-48
2021/04/03 07:43:47;;;;;;;12.43;8.20;;;;;;;6.08;62.57;99254.30;1669275;82;21011;-44
2021/04/03 07:46:23;;;;;;;13.70;8.20;;;;;;;6.14;62.63;99250.91;1725530;81;21578;-46
2021/04/03 07:48:58;;;;;;;12.00;7.60;;;;;;;6.20;61.88;99252.00;1694328;82;20988;-45
2021/04/03 07:51:34;;;;;;;11.68;6.97;;;;;;;6.27;61.22;99256.16;1728453;80;21008;-46
2021/04/03 07:54:06;;;;;;;13.05;6.92;;;;;;;6.36;61.04;99257.59;1684447;82;21567;-44
2021/04/03 07:56:51;;;;;;;10.32;6.80;;;;;;;6.42;60.53;99244.42;1675026;82;21841;-44
2021/04/03 07:59:48;;;;;;;16.37;7.25;;;;;;;6.47;60.46;99247.31;1707639;81;21613;-44
2021/04/03 08:02:23;;;;;;;11.20;6.12;;;;;;;6.55;60.84;99250.55;1709496;81;21742;-44
2021/04/03 08:04:51;;;;;;;10.30;4.67;;;;;;;6.70;59.86;99262.41;1706160;82;21009;-43
2021/04/03 08:07:21;;;;;;;10.55;4.85;;;;;;;6.76;58.28;99263.48;1709668;81;21157;-44
2021/04/03 08:09:49;;;;;;;6.90;4.05;;;;;;;6.82;57.44;99272.62;1707332;81;21965;-43
2021/04/03 08:12:22;;;;;;;6.25;4.00;;;;;;;6.89;57.02;99265.66;1706867;81;21219;-45
2021/04/03 08:14:50;;;;;;;10.30;4.78;;;;;;;6.95;56.62;99272.09;1696126;82;21445;-46
2021/04/03 08:17:20;;;;;;;12.93;4.33;;;;;;;6.99;56.01;99279.07;1706290;81;21629;-47
2021/04/03 08:19:49;;;;;;;7.10;3.40;;;;;;;7.04;55.95;99283.30;1707745;81;21168;-45
2021/04/03 08:22:18;;;;;;;5.53;2.80;;;;;;;7.06;52.95;99281.41;1709616;81;21048;-52
2021/04/03 08:24:59;;;;;;;5.37;3.00;;;;;;;7.10;49.49;99295.56;1709397;81;21577;-49
2021/04/03 08:27:32;;;;;;;5.47;3.35;;;;;;;7.12;47.42;99274.91;1710690;82;21156;-49
2021/04/03 08:30:20;;;;;;;4.87;3.30;;;;;;;7.21;47.59;99277.19;1709059;82;21121;-48
2021/04/03 08:32:31;;;;;;;6.40;3.20;;;;;;;7.27;48.32;99263.98;1708501;81;21103;-48
2021/04/03 08:34:59;;;;;;;7.80;3.85;;;;;;;7.35;48.67;99258.68;1709257;81;21390;-50
2021/04/03 08:37:28;;;;;;;5.58;3.40;;;;;;;7.46;49.37;99265.38;1704556;81;21061;-48
2021/04/03 08:39:57;;;;;;;7.87;4.00;;;;;;;7.54;49.66;99268.56;1699309;83;20995;-48
2021/04/03 08:42:26;;;;;;;7.28;3.90;;;;;;;7.63;50.14;99262.78;1698477;83;21682;-50
2021/04/03 08:44:55;;;;;;;7.92;3.80;;;;;;;7.69;50.40;99259.81;1699471;83;21487;-49
2021/04/03 08:47:23;;;;;;;8.83;4.03;;;;;;;7.75;50.08;99251.47;1670989;83;21228;-47
2021/04/03 08:49:51;;;;;;;6.92;4.37;;;;;;;7.80;50.51;99249.44;1698720;83;21038;-48
2021/04/03 08:52:20;;;;;;;8.50;3.98;;;;;;;7.84;50.34;99245.67;1698579;81;21566;-54
2021/04/03 08:54:48;;;;;;;5.92;3.50;;;;;;;7.91;49.31;99241.36;1693083;83;21077;-46
2021/04/03 08:57:27;;;;;;;8.53;4.33;;;;;;;7.94;48.51;99239.87;1694271;83;21188;-45
2021/04/03 08:59:56;;;;;;;9.05;4.10;;;;;;;7.96;49.07;99237.51;1698900;83;22703;-48
2021/04/03 09:02:24;;;;;;;5.85;3.67;;;;;;;8.04;49.02;99236.68;1700365;82;21774;-46
2021/04/03 09:04:52;;;;;;;5.15;3.83;;;;;;;8.05;48.75;99238.41;1697616;83;21719;-47
2021/04/03 09:07:33;;;;;;;6.28;4.05;;;;;;;8.07;48.77;99235.65;1697913;83;21171;-48
2021/04/03 09:10:09;;;;;;;11.15;5.03;;;;;;;8.12;48.95;99244.35;1698763;83;21514;-51
2021/04/03 09:12:44;;;;;;;7.92;4.30;;;;;;;8.25;48.92;99240.11;1791465;77;22674;-46
2021/04/03 09:15:14;;;;;;;7.15;4.20;;;;;;;8.24;48.30;99246.43;1757948;79;21017;-51
2021/04/03 09:17:48;;;;;;;6.40;4.17;;;;;;;8.29;47.64;99252.92;1756842;79;21425;-47
2021/04/03 09:20:20;;;;;;;6.30;3.37;;;;;;;8.30;45.54;99240.75;1757557;79;21605;-46
2021/04/03 09:22:51;;;;;;;6.92;3.40;;;;;;;8.35;45.50;99245.43;1761329;79;21012;-47
2021/04/03 09:25:23;;;;;;;6.78;3.37;;;;;;;8.43;44.65;99237.52;1760746;79;21438;-45
2021/04/03 09:28:05;;;;;;;6.50;3.20;;;;;;;8.53;44.40;99236.11;1758995;79;21037;-49
2021/04/03 09:30:37;;;;;;;7.92;2.95;;;;;;;8.62;44.99;99238.31;1763471;79;21460;-48
2021/04/03 09:33:22;;;;;;;5.33;3.52;;;;;;;8.73;44.83;99246.70;1762113;79;21019;-49
2021/04/03 09:35:51;;;;;;;5.92;3.70;;;;;;;8.79;45.01;99252.23;1759835;79;21534;-49
2021/04/03 09:38:33;;;;;;;6.30;3.70;;;;;;;8.81;44.91;99247.20;1757186;80;21140;-49
2021/04/03 09:41:01;;;;;;;6.87;3.60;;;;;;;8.80;44.50;99238.73;1756252;79;20982;-48
2021/04/03 09:43:43;;;;;;;6.28;3.72;;;;;;;8.77;44.23;99239.36;1759670;79;21187;-50
2021/04/03 09:46:11;;;;;;;6.80;3.60;;;;;;;8.77;44.39;99244.73;1758282;80;21167;-49
2021/04/03 09:48:43;;;;;;;3.70;2.85;;;;;;;8.81;44.17;99240.47;1757877;79;21585;-49
2021/04/03 09:51:11;;;;;;;5.85;3.33;;;;;;;8.87;43.93;99241.50;1745822;79;21218;-50
2021/04/03 09:53:43;;;;;;;6.00;3.27;;;;;;;8.92;43.32;99248.86;1757353;79;21172;-49
2021/04/03 09:56:11;;;;;;;7.80;3.10;;;;;;;8.95;43.27;99240.22;1759085;79;21394;-48
2021/04/03 09:58:39;;;;;;;5.42;3.45;;;;;;;8.98;43.25;99243.63;1762347;79;21612;-49
2021/04/03 10:01:08;;;;;;;4.45;2.80;;;;;;;9.04;43.34;99237.06;1754901;79;21585;-50
2021/04/03 10:03:36;;;;;;;7.65;3.55;;;;;;;9.08;43.53;99231.92;1754169;79;21112;-49
2021/04/03 10:06:06;;;;;;;6.05;3.33;;;;;;;9.12;43.42;99252.34;1755266;79;21527;-49
2021/04/03 10:08:34;;;;;;;7.67;3.37;;;;;;;9.17;42.88;99252.50;1761330;79;21302;-49
2021/04/03 10:11:03;;;;;;;5.72;3.20;;;;;;;9.17;42.88;99252.50;1754374;79;21560;-50
2021/04/03 10:13:32;;;;;;;6.95;2.85;;;;;;;9.25;42.51;99244.00;1724436;79;21037;-49
2021/04/03 10:16:02;;;;;;;5.05;2.87;;;;;;;9.31;41.29;99249.05;1756006;80;21139;-49
2021/04/03 10:18:31;;;;;;;6.72;3.85;;;;;;;9.35;40.43;99246.60;1757275;79;21557;-49
2021/04/03 10:21:00;;;;;;;5.05;2.55;;;;;;;9.35;40.12;99262.75;1758936;80;22272;-49
2021/04/03 10:23:28;;;;;;;5.37;2.90;;;;;;;9.35;40.12;99262.75;1755402;80;21017;-50
2021/04/03 10:25:56;;;;;;;6.22;2.92;;;;;;;9.36;40.38;99264.48;1753460;79;21598;-50
2021/04/03 10:28:24;;;;;;;4.58;3.05;;;;;;;9.38;40.16;99257.70;1755456;79;21001;-49
2021/04/03 10:30:52;;;;;;;5.28;2.72;;;;;;;9.42;40.46;99246.66;1759816;79;21573;-49
2021/04/03 10:33:20;;;;;;;4.72;2.47;;;;;;;9.42;40.46;99246.66;1759228;79;22420;-49
2021/04/03 10:35:48;;;;;;;5.15;2.45;;;;;;;9.50;40.16;99260.20;1756942;79;21608;-49
2021/04/03 10:38:18;;;;;;;4.75;2.27;;;;;;;9.54;38.12;99257.74;1753828;79;21708;-49
2021/04/03 10:40:46;;;;;;;2.92;1.85;;;;;;;9.51;37.70;99256.55;1753777;80;21021;-50
2021/04/03 10:43:16;;;;;;;2.05;1.52;;;;;;;9.40;36.25;99252.61;1757103;79;21005;-49
2021/04/03 10:45:44;;;;;;;2.52;1.70;;;;;;;9.40;36.25;99252.61;1760729;79;21870;-50
2021/04/03 10:48:13;;;;;;;3.92;2.00;;;;;;;9.39;36.81;99244.15;1759468;79;21150;-48
2021/04/03 10:50:41;;;;;;;2.47;1.87;;;;;;;9.41;37.09;99244.92;1756235;79;21001;-44
2021/04/03 10:53:10;;;;;;;2.98;1.90;;;;;;;9.41;37.09;99244.92;1759287;79;20971;-50
2021/04/03 10:55:40;;;;;;;2.80;1.90;;;;;;;9.45;37.41;99248.33;1757434;80;20986;-43
2021/04/03 10:58:09;;;;;;;2.55;1.80;;;;;;;9.52;37.17;99248.86;1758773;79;21373;-45
2021/04/03 11:00:38;;;;;;;4.67;2.83;;;;;;;9.62;37.92;99244.72;1753336;79;21144;-43
2021/04/03 11:03:07;;;;;;;4.65;2.25;;;;;;;9.68;37.74;99241.69;1752294;77;21183;-44
2021/04/03 11:05:36;;;;;;;3.20;2.00;;;;;;;9.77;38.87;99238.50;1753844;79;21006;-43
2021/04/03 11:08:04;;;;;;;3.87;2.10;;;;;;;9.77;38.87;99238.50;1752118;79;21129;-43
2021/04/03 11:10:33;;;;;;;3.95;2.33;;;;;;;9.79;38.52;99232.54;1753981;79;21200;-44
2021/04/03 11:13:02;;;;;;;4.50;2.22;;;;;;;9.79;38.53;99225.80;1745698;80;21160;-43
2021/04/03 11:15:31;;;;;;;4.60;2.10;;;;;;;9.74;38.04;99233.27;1745490;80;20987;-44
2021/04/03 11:17:59;;;;;;;4.53;2.27;;;;;;;9.68;37.89;99230.92;1746666;79;21148;-47
2021/04/03 11:20:29;;;;;;;2.95;1.98;;;;;;;9.63;36.14;99239.24;1751992;79;20995;-47
2021/04/03 11:22:58;;;;;;;2.77;1.90;;;;;;;9.61;35.93;99242.98;1745143;79;21362;-48
2021/04/03 11:25:27;;;;;;;4.85;1.80;;;;;;;9.57;34.20;99233.33;1749371;79;21115;-49
2021/04/03 11:27:55;;;;;;;2.47;1.70;;;;;;;9.57;34.20;99233.33;1748823;79;21542;-48
2021/04/03 11:30:24;;;;;;;3.45;2.47;;;;;;;9.56;34.41;99236.98;1749764;79;21133;-52
2021/04/03 11:32:52;;;;;;;3.87;2.20;;;;;;;9.51;34.57;99247.13;1748108;79;21014;-51
2021/04/03 11:35:22;;;;;;;7.37;1.98;;;;;;;9.50;34.59;99240.02;1750375;78;21385;-49
2021/04/03 11:37:50;;;;;;;2.98;1.67;;;;;;;9.47;34.51;99242.86;1749558;79;21108;-49
2021/04/03 11:40:19;;;;;;;4.80;1.55;;;;;;;9.52;33.77;99237.61;1747705;79;21207;-47
2021/04/03 11:42:52;;;;;;;3.20;1.57;;;;;;;9.54;33.38;99244.28;1750924;79;21160;-47
2021/04/03 11:45:19;;;;;;;2.67;1.40;;;;;;;9.57;33.64;99241.41;1749070;79;21184;-44
2021/04/03 11:47:48;;;;;;;4.12;1.65;;;;;;;9.61;33.37;99241.64;1745939;79;21175;-43
2021/04/03 11:50:16;;;;;;;2.60;1.70;;;;;;;9.64;33.19;99241.01;1750006;79;21065;-45
2021/04/03 11:52:44;;;;;;;2.27;1.20;;;;;;;9.52;32.81;99227.33;1750691;79;21505;-45
2021/04/03 11:55:15;;;;;;;3.02;1.60;;;;;;;9.52;32.81;99227.33;1749318;79;20983;-43